Mashantucket, Connecticut
Current Conditions -  °F | °C
As of 9:56 PM on Monday 26 Jan 2015 (Local Time) from KGON Reporting Station
Moderate Snow Moderate Snow  
Wind Chill: 13°   Ceiling: 1000
Heat Index: 28°   Visibility: 0.5mi
Dew Point: 26°   Wind: 28mph
Humidity: 92%   Direction: 30°NNE
Pressure: 29.71"   Gusts: 45mph
Location:  41.47°N, 71.96°W
Report Text: KGON 270256Z AUTO 03024G39KT 1/2SM R05/3500V4500FT SN FZFG VV010 M02/M03 A2971 RMK AO2 PK WND 02039/0252 SLP059 P0000 60000 T10221033 58056 $
Loading
Personal Weather Stations






























Interactive Weather Map New forecast layout! Learn more

10-Day Weather Forecast

Advertisements
Track Severe Weather on mobile